Time;durP1;ratioP1;P1;durP2;ratioP2;P2;SDS_P1;SDS_P2;PMS_P1;PMS_P2;Temp;Humidity;BMP_temperature;BMP_pressure;BME280_temperature;BME280_humidity;BME280_pressure;Samples;Min_cycle;Max_cycle;Signal;HPM_P1;HPM_P2
2023/04/01 00:03:21;;;;;;;23.50;16.23;;;;;;;;;;10542638;28;20036;-81
2023/04/01 00:08:22;;;;;;;20.17;14.73;;;;;;;;;;10538449;28;20050;-82
2023/04/01 00:13:30;;;;;;;25.60;17.80;;;;;;;;;;10556100;28;20032;-81
2023/04/01 00:18:35;;;;;;;35.73;25.63;;;;;;;;;;10559484;28;20035;-82
2023/04/01 00:23:37;;;;;;;38.00;26.33;;;;;;;;;;10559290;28;20143;-82
2023/04/01 00:28:38;;;;;;;36.30;25.50;;;;;;;;;;10549044;28;20114;-80
2023/04/01 00:33:40;;;;;;;42.43;31.77;;;;;;;;;;10525484;28;20034;-81
2023/04/01 00:38:42;;;;;;;29.03;15.77;;;;;;;;;;10556088;28;20108;-81
2023/04/01 00:43:44;;;;;;;26.37;14.47;;;;;;;;;;10551669;28;20023;-82
2023/04/01 00:48:53;;;;;;;46.63;30.07;;;;;;;;;;10549997;28;20495;-81
2023/04/01 00:53:56;;;;;;;49.10;31.33;;;;;;;;;;10560809;28;20587;-81
2023/04/01 00:59:23;;;;;;;67.27;45.30;;;;;;;;;;10568766;28;20706;-80
2023/04/01 01:04:31;;;;;;;56.70;35.97;;;;;;;;;;10539782;28;20096;-83
2023/04/01 01:10:08;;;;;;;28.97;17.37;;;;;;;;;;10553800;28;20081;-80
2023/04/01 01:15:12;;;;;;;27.80;12.30;;;;;;;;;;10404284;28;20101;-81
2023/04/01 01:20:28;;;;;;;37.00;15.57;;;;;;;;;;10518486;28;20116;-81
2023/04/01 01:25:29;;;;;;;;;;;;;;;;;;10551704;28;20032;-80
2023/04/01 01:30:39;;;;;;;27.30;13.73;;;;;;;;;;10544435;28;20003;-81
2023/04/01 01:35:45;;;;;;;24.37;11.90;;;;;;;;;;10550172;28;20031;-82
2023/04/01 01:40:50;;;;;;;23.13;11.55;;;;;;;;;;10571392;28;20063;-82
2023/04/01 01:45:54;;;;;;;21.10;11.18;;;;;;;;;;10550292;28;20047;-81
2023/04/01 01:50:55;;;;;;;23.17;11.83;;;;;;;;;;10561167;28;20059;-81
2023/04/01 01:55:56;;;;;;;30.57;15.00;;;;;;;;;;10547876;28;20043;-81
2023/04/01 02:00:59;;;;;;;49.93;22.23;;;;;;;;;;10556104;28;20178;-81
2023/04/01 02:06:02;;;;;;;42.07;20.53;;;;;;;;;;10553951;28;20019;-83
2023/04/01 02:11:08;;;;;;;47.03;30.70;;;;;;;;;;10565807;28;20496;-81
2023/04/01 02:16:14;;;;;;;40.23;21.83;;;;;;;;;;10544854;28;20127;-81
2023/04/01 02:21:15;;;;;;;34.75;20.23;;;;;;;;;;10558541;28;20807;-82
2023/04/01 02:26:16;;;;;;;26.03;13.20;;;;;;;;;;10552934;28;20034;-83
2023/04/01 02:31:17;;;;;;;29.30;17.43;;;;;;;;;;10551110;28;20086;-81
2023/04/01 02:36:18;;;;;;;26.87;14.73;;;;;;;;;;10567066;28;20032;-82
2023/04/01 02:41:20;;;;;;;29.53;16.40;;;;;;;;;;10544172;28;20054;-83
2023/04/01 02:46:21;;;;;;;36.50;17.97;;;;;;;;;;10536792;28;20027;-82
2023/04/01 02:51:22;;;;;;;39.27;21.57;;;;;;;;;;10566308;28;20036;-82
2023/04/01 02:56:23;;;;;;;62.63;32.17;;;;;;;;;;10547449;28;20142;-82
2023/04/01 03:01:24;;;;;;;53.00;30.00;;;;;;;;;;10543494;28;20054;-83
2023/04/01 03:06:25;;;;;;;59.03;33.43;;;;;;;;;;10539180;28;20032;-82
2023/04/01 03:11:26;;;;;;;54.83;30.00;;;;;;;;;;10552540;28;20028;-82
2023/04/01 03:16:27;;;;;;;58.77;32.60;;;;;;;;;;10558374;28;20089;-82
2023/04/01 03:21:28;;;;;;;49.20;26.83;;;;;;;;;;10560216;28;20050;-82
2023/04/01 03:26:29;;;;;;;39.27;21.97;;;;;;;;;;10558525;28;20043;-82
2023/04/01 03:31:30;;;;;;;37.57;20.90;;;;;;;;;;10545212;28;20027;-81
2023/04/01 03:36:31;;;;;;;32.47;18.27;;;;;;;;;;10545716;28;20938;-83
2023/04/01 03:41:32;;;;;;;29.87;17.23;;;;;;;;;;10562596;28;20040;-83
2023/04/01 03:46:33;;;;;;;43.73;19.67;;;;;;;;;;10552064;28;20386;-82
2023/04/01 03:51:34;;;;;;;47.77;24.60;;;;;;;;;;10559019;28;20450;-82
2023/04/01 03:56:35;;;;;;;52.57;28.30;;;;;;;;;;10552745;28;20036;-81
2023/04/01 04:01:36;;;;;;;56.27;29.97;;;;;;;;;;10521101;28;20044;-81
2023/04/01 04:06:37;;;;;;;57.37;31.87;;;;;;;;;;10515613;28;20035;-81
2023/04/01 04:11:38;;;;;;;63.60;32.87;;;;;;;;;;10555123;28;20039;-79
2023/04/01 04:16:39;;;;;;;67.07;35.33;;;;;;;;;;10529436;28;20033;-83
2023/04/01 04:21:41;;;;;;;69.43;36.77;;;;;;;;;;10526011;28;20491;-81
2023/04/01 04:26:42;;;;;;;75.17;39.97;;;;;;;;;;10542656;28;20036;-82
2023/04/01 04:31:43;;;;;;;70.83;35.77;;;;;;;;;;10546455;28;20433;-83
2023/04/01 04:36:44;;;;;;;71.93;36.37;;;;;;;;;;10549164;28;20063;-83
2023/04/01 04:41:45;;;;;;;60.40;33.07;;;;;;;;;;10548413;28;20034;-82
2023/04/01 04:46:46;;;;;;;47.50;25.27;;;;;;;;;;10538605;28;20035;-82
2023/04/01 04:51:48;;;;;;;42.03;21.83;;;;;;;;;;10523774;28;20052;-81
2023/04/01 04:56:49;;;;;;;31.57;14.37;;;;;;;;;;10525215;28;20051;-83
2023/04/01 05:01:50;;;;;;;23.07;12.63;;;;;;;;;;10517979;28;20048;-81
2023/04/01 05:06:51;;;;;;;34.80;16.77;;;;;;;;;;10513806;28;20123;-81
2023/04/01 05:11:52;;;;;;;27.77;15.87;;;;;;;;;;10524127;28;20032;-82
2023/04/01 05:16:54;;;;;;;24.97;13.63;;;;;;;;;;10523289;28;20028;-82
2023/04/01 05:21:55;;;;;;;25.57;15.77;;;;;;;;;;10522353;28;20093;-83
2023/04/01 05:26:57;;;;;;;23.00;13.23;;;;;;;;;;10534633;28;20418;-80
2023/04/01 05:31:58;;;;;;;27.70;18.30;;;;;;;;;;10522090;28;20661;-82
2023/04/01 05:36:59;;;;;;;23.73;14.27;;;;;;;;;;10533687;28;20038;-81
2023/04/01 05:42:00;;;;;;;25.73;13.07;;;;;;;;;;10528520;28;20037;-81
2023/04/01 05:47:01;;;;;;;24.07;12.93;;;;;;;;;;10501737;28;20028;-82
2023/04/01 05:52:02;;;;;;;25.10;13.80;;;;;;;;;;10545518;28;20052;-86
2023/04/01 05:57:03;;;;;;;26.50;14.00;;;;;;;;;;10557832;28;20039;-81
2023/04/01 06:02:04;;;;;;;23.47;13.43;;;;;;;;;;10540884;28;20490;-81
2023/04/01 06:07:15;;;;;;;27.23;14.20;;;;;;;;;;10566078;28;20026;-84
2023/04/01 06:12:25;;;;;;;24.80;13.30;;;;;;;;;;10523737;28;20032;-84
2023/04/01 06:17:41;;;;;;;45.13;20.30;;;;;;;;;;10551881;28;20035;-83
2023/04/01 06:23:01;;;;;;;60.50;28.50;;;;;;;;;;10540277;28;20048;-82
2023/04/01 06:28:20;;;;;;;60.97;25.47;;;;;;;;;;10564140;28;20459;-81
2023/04/01 06:33:31;;;;;;;34.97;16.13;;;;;;;;;;10535595;28;20495;-82
2023/04/01 06:38:35;;;;;;;55.65;24.83;;;;;;;;;;10524497;28;20028;-84
2023/04/01 06:43:36;;;;;;;47.42;20.88;;;;;;;;;;10556373;28;20036;-81
2023/04/01 06:48:44;;;;;;;38.92;19.48;;;;;;;;;;10551174;28;20035;-79
2023/04/01 06:53:54;;;;;;;27.75;12.82;;;;;;;;;;10529925;28;20028;-83
2023/04/01 06:59:00;;;;;;;24.58;12.05;;;;;;;;;;10534713;28;20031;-80
2023/04/01 07:04:09;;;;;;;26.95;13.18;;;;;;;;;;10555360;28;20033;-81
2023/04/01 07:09:13;;;;;;;23.02;12.55;;;;;;;;;;10541573;28;20502;-83
2023/04/01 07:14:14;;;;;;;21.05;11.40;;;;;;;;;;10545401;28;20035;-81
2023/04/01 07:19:19;;;;;;;21.88;11.18;;;;;;;;;;10532368;28;20491;-82
2023/04/01 07:24:29;;;;;;;24.70;10.77;;;;;;;;;;10519920;28;20024;-80
2023/04/01 07:29:30;;;;;;;17.73;10.15;;;;;;;;;;10541677;28;20360;-81
2023/04/01 07:34:34;;;;;;;18.90;10.10;;;;;;;;;;10544341;28;20028;-81
2023/04/01 07:39:40;;;;;;;26.07;12.07;;;;;;;;;;10536886;28;20043;-80
2023/04/01 07:44:53;;;;;;;38.33;17.45;;;;;;;;;;10557897;28;20027;-82
2023/04/01 07:50:13;;;;;;;30.83;16.00;;;;;;;;;;10563303;28;20550;-83
2023/04/01 07:55:33;;;;;;;26.43;13.63;;;;;;;;;;10542719;28;20031;-81
2023/04/01 08:00:51;;;;;;;28.57;14.37;;;;;;;;;;10530424;28;20043;-83
2023/04/01 08:06:00;;;;;;;30.13;14.40;;;;;;;;;;10544649;28;20471;-81
2023/04/01 08:11:15;;;;;;;25.70;13.50;;;;;;;;;;10529941;28;20036;-83
2023/04/01 08:16:35;;;;;;;38.67;19.07;;;;;;;;;;10550163;28;20039;-80
2023/04/01 08:21:44;;;;;;;40.23;20.70;;;;;;;;;;10503452;28;20036;-80
2023/04/01 08:26:50;;;;;;;39.30;21.05;;;;;;;;;;10538350;28;20410;-81
2023/04/01 08:31:57;;;;;;;37.83;19.77;;;;;;;;;;10533893;28;20036;-81
2023/04/01 08:37:07;;;;;;;30.25;17.40;;;;;;;;;;10560098;28;20130;-81
2023/04/01 08:42:11;;;;;;;34.83;19.33;;;;;;;;;;10540261;28;20499;-80
2023/04/01 08:47:33;;;;;;;36.95;20.75;;;;;;;;;;10564161;28;20578;-82
2023/04/01 08:52:41;;;;;;;28.42;18.38;;;;;;;;;;10530940;28;20135;-81
2023/04/01 08:57:52;;;;;;;27.67;15.27;;;;;;;;;;10541330;28;20023;-82
2023/04/01 09:03:14;;;;;;;33.72;17.70;;;;;;;;;;10565492;28;20042;-80
2023/04/01 09:08:24;;;;;;;27.83;15.35;;;;;;;;;;10558670;28;20082;-81
2023/04/01 09:13:36;;;;;;;19.77;10.98;;;;;;;;;;10541036;28;20126;-80
2023/04/01 09:19:00;;;;;;;57.28;32.15;;;;;;;;;;10552825;28;20031;-80
2023/04/01 09:24:19;;;;;;;41.77;23.27;;;;;;;;;;10563161;28;20084;-81
2023/04/01 09:29:39;;;;;;;46.45;23.42;;;;;;;;;;10564090;28;20038;-81
2023/04/01 09:34:54;;;;;;;33.30;18.77;;;;;;;;;;10552214;28;20028;-81
2023/04/01 09:40:05;;;;;;;30.93;18.53;;;;;;;;;;10553406;28;20032;-81
2023/04/01 09:45:14;;;;;;;25.73;14.68;;;;;;;;;;10556014;28;20506;-82
2023/04/01 09:50:23;;;;;;;20.90;12.48;;;;;;;;;;10564511;28;20044;-82
2023/04/01 09:55:50;;;;;;;24.65;14.50;;;;;;;;;;10553878;28;20036;-79
2023/04/01 10:01:10;;;;;;;26.67;14.82;;;;;;;;;;10535558;28;20056;-80
2023/04/01 10:06:29;;;;;;;33.40;19.23;;;;;;;;;;10546432;28;20499;-80
2023/04/01 10:11:49;;;;;;;31.55;17.70;;;;;;;;;;10559932;28;20189;-80
2023/04/01 10:17:11;;;;;;;22.25;13.55;;;;;;;;;;10549319;28;20387;-83
2023/04/01 10:22:19;;;;;;;25.10;14.13;;;;;;;;;;10547174;28;20067;-80
2023/04/01 10:27:35;;;;;;;25.30;14.63;;;;;;;;;;10554338;28;20548;-80
2023/04/01 10:33:00;;;;;;;16.77;11.30;;;;;;;;;;10563170;28;20424;-81
2023/04/01 10:38:07;;;;;;;32.23;16.23;;;;;;;;;;10534750;28;20023;-83
2023/04/01 10:43:26;;;;;;;19.63;11.93;;;;;;;;;;10545195;28;20096;-83
2023/04/01 10:48:50;;;;;;;20.42;12.05;;;;;;;;;;10563587;28;20028;-82
2023/04/01 10:54:11;;;;;;;32.90;19.83;;;;;;;;;;10545443;28;20133;-85
2023/04/01 10:59:34;;;;;;;38.47;20.85;;;;;;;;;;10535028;28;20118;-82
2023/04/01 11:04:39;;;;;;;22.30;13.52;;;;;;;;;;10541409;28;20023;-83
2023/04/01 11:09:40;;;;;;;42.78;23.70;;;;;;;;;;10541425;28;20111;-83
2023/04/01 11:14:59;;;;;;;37.80;20.40;;;;;;;;;;10568112;28;20136;-83
2023/04/01 11:20:09;;;;;;;18.85;12.70;;;;;;;;;;10547885;28;20861;-83
2023/04/01 11:25:37;;;;;;;24.58;16.27;;;;;;;;;;10547560;28;20031;-83
2023/04/01 11:30:54;;;;;;;14.30;9.60;;;;;;;;;;10502016;28;20055;-82
2023/04/01 11:36:01;;;;;;;18.65;11.93;;;;;;;;;;10530813;28;20016;-82
2023/04/01 11:41:11;;;;;;;15.75;10.00;;;;;;;;;;10526787;28;20043;-82
2023/04/01 11:46:18;;;;;;;25.20;17.38;;;;;;;;;;10526493;28;20028;-83
2023/04/01 11:51:30;;;;;;;17.42;10.05;;;;;;;;;;10515862;28;20044;-84
2023/04/01 11:56:35;;;;;;;16.92;10.93;;;;;;;;;;10502638;28;20058;-82
2023/04/01 12:01:52;;;;;;;24.58;14.95;;;;;;;;;;10504389;28;20035;-81
2023/04/01 12:07:11;;;;;;;23.63;13.07;;;;;;;;;;10523732;28;20032;-82
2023/04/01 12:12:31;;;;;;;17.75;10.88;;;;;;;;;;10509034;28;20058;-81
2023/04/01 12:17:37;;;;;;;22.60;14.20;;;;;;;;;;10516140;28;20032;-80
2023/04/01 12:22:38;;;;;;;;;;;;;;;;;;10502745;28;20079;-82
2023/04/01 12:27:44;;;;;;;17.02;10.35;;;;;;;;;;10509990;28;20011;-84
2023/04/01 12:33:04;;;;;;;19.98;16.30;;;;;;;;;;10525855;28;20032;-81
2023/04/01 12:38:23;;;;;;;15.75;9.35;;;;;;;;;;10531504;22;20028;-82
2023/04/01 12:43:33;;;;;;;34.03;24.15;;;;;;;;;;10484730;28;20036;-82
2023/04/01 12:49:00;;;;;;;9.38;6.18;;;;;;;;;;10487530;28;20568;-83
2023/04/01 12:54:28;;;;;;;12.60;6.10;;;;;;;;;;10490284;28;20062;-82
2023/04/01 12:59:30;;;;;;;17.60;9.35;;;;;;;;;;10474589;28;20024;-81
2023/04/01 13:04:50;;;;;;;12.88;7.75;;;;;;;;;;10482948;28;20017;-81
2023/04/01 13:10:15;;;;;;;31.35;20.20;;;;;;;;;;10484057;28;20029;-81
2023/04/01 13:15:36;;;;;;;26.33;15.63;;;;;;;;;;10484316;28;20415;-82
2023/04/01 13:20:49;;;;;;;21.65;12.30;;;;;;;;;;10474813;28;20063;-80
2023/04/01 13:26:11;;;;;;;16.83;10.70;;;;;;;;;;10464390;28;20032;-82
2023/04/01 13:31:26;;;;;;;29.50;16.42;;;;;;;;;;10460805;28;20036;-83
2023/04/01 13:36:30;;;;;;;30.05;17.38;;;;;;;;;;10478756;28;20035;-81
2023/04/01 13:41:43;;;;;;;21.00;12.30;;;;;;;;;;10490567;28;20048;-83
2023/04/01 13:47:03;;;;;;;16.75;10.00;;;;;;;;;;10454767;28;20429;-81
2023/04/01 13:52:25;;;;;;;15.15;9.15;;;;;;;;;;10491380;28;20029;-81
2023/04/01 13:57:37;;;;;;;20.10;11.10;;;;;;;;;;10490214;28;20468;-83
2023/04/01 14:02:48;;;;;;;19.02;9.93;;;;;;;;;;10472669;28;20039;-80
2023/04/01 14:08:08;;;;;;;2.40;0.90;;;;;;;;;;10471862;28;20096;-83
2023/04/01 14:13:30;;;;;;;4.03;2.37;;;;;;;;;;10471915;28;20036;-82
2023/04/01 14:18:31;;;;;;;5.13;2.50;;;;;;;;;;10448237;28;20032;-83
2023/04/01 14:23:32;;;;;;;15.90;5.83;;;;;;;;;;10490368;28;20036;-85
2023/04/01 14:28:51;;;;;;;11.33;5.63;;;;;;;;;;10489901;28;20372;-83
2023/04/01 14:33:55;;;;;;;21.40;10.90;;;;;;;;;;10489114;28;20419;-83
2023/04/01 14:39:05;;;;;;;62.60;24.93;;;;;;;;;;10488002;28;20060;-82
2023/04/01 14:44:18;;;;;;;77.37;38.40;;;;;;;;;;10488696;28;20040;-83
2023/04/01 14:49:37;;;;;;;45.37;23.70;;;;;;;;;;10488462;28;20399;-85
2023/04/01 14:54:39;;;;;;;24.33;12.33;;;;;;;;;;10489101;28;20028;-83
2023/04/01 14:59:51;;;;;;;42.20;22.23;;;;;;;;;;10488182;28;20079;-83
2023/04/01 15:05:01;;;;;;;82.97;41.93;;;;;;;;;;10483534;28;20479;-82
2023/04/01 15:10:22;;;;;;;77.93;37.97;;;;;;;;;;10475429;28;20085;-84
2023/04/01 15:15:29;;;;;;;23.70;11.68;;;;;;;;;;10488027;28;20020;-85
2023/04/01 15:20:30;;;;;;;38.22;21.13;;;;;;;;;;10487146;28;20120;-84
2023/04/01 15:25:34;;;;;;;17.83;8.43;;;;;;;;;;10480210;28;20345;-84
2023/04/01 15:30:45;;;;;;;24.25;15.48;;;;;;;;;;10482461;28;20017;-84
2023/04/01 15:35:51;;;;;;;45.90;26.25;;;;;;;;;;10487002;28;20020;-86
2023/04/01 15:40:58;;;;;;;36.17;20.90;;;;;;;;;;10469060;28;20048;-84
2023/04/01 15:46:10;;;;;;;47.45;22.85;;;;;;;;;;10468539;28;20031;-86
2023/04/01 15:51:22;;;;;;;30.20;15.80;;;;;;;;;;10468550;28;20047;-84
2023/04/01 15:56:23;;;;;;;36.70;20.83;;;;;;;;;;10468409;28;20029;-84
2023/04/01 16:01:42;;;;;;;42.28;25.70;;;;;;;;;;10478809;28;20036;-84
2023/04/01 16:07:07;;;;;;;51.70;31.95;;;;;;;;;;10486380;28;20032;-84
2023/04/01 16:12:17;;;;;;;45.53;25.90;;;;;;;;;;10457113;28;20484;-85
2023/04/01 16:17:44;;;;;;;52.75;29.42;;;;;;;;;;10485398;28;20025;-84
2023/04/01 16:23:00;;;;;;;84.82;43.40;;;;;;;;;;10467809;28;20143;-84
2023/04/01 16:28:11;;;;;;;79.00;37.80;;;;;;;;;;10472832;28;20628;-84
2023/04/01 16:33:17;;;;;;;92.10;43.85;;;;;;;;;;10485547;28;20036;-85
2023/04/01 16:38:34;;;;;;;97.38;53.85;;;;;;;;;;10485071;28;20056;-84
2023/04/01 16:43:39;;;;;;;144.20;67.82;;;;;;;;;;10485304;28;20041;-83
2023/04/01 16:49:00;;;;;;;111.03;51.23;;;;;;;;;;10466391;28;20506;-83
2023/04/01 16:54:06;;;;;;;77.32;37.05;;;;;;;;;;10468638;28;20028;-83
2023/04/01 16:59:16;;;;;;;95.53;44.65;;;;;;;;;;10475135;28;20031;-85
2023/04/01 17:04:27;;;;;;;57.45;28.63;;;;;;;;;;10475068;28;20037;-83
2023/04/01 17:09:28;;;;;;;60.75;30.88;;;;;;;;;;10475175;28;20074;-84
2023/04/01 17:14:33;;;;;;;73.40;34.13;;;;;;;;;;10492103;28;20039;-84
2023/04/01 17:19:39;;;;;;;108.13;53.87;;;;;;;;;;10491975;28;20040;-83
2023/04/01 17:24:40;;;;;;;69.63;34.80;;;;;;;;;;10492161;28;20064;-83
2023/04/01 17:30:00;;;;;;;88.47;43.67;;;;;;;;;;10491644;28;20131;-83
2023/04/01 17:35:03;;;;;;;97.63;50.70;;;;;;;;;;10473849;28;20044;-83
2023/04/01 17:40:23;;;;;;;91.93;44.80;;;;;;;;;;10472824;28;20056;-84
2023/04/01 17:45:28;;;;;;;87.82;39.15;;;;;;;;;;10473711;28;20048;-83
2023/04/01 17:50:29;;;;;;;78.90;37.13;;;;;;;;;;10460355;28;20060;-84
2023/04/01 17:55:45;;;;;;;98.07;46.33;;;;;;;;;;10472739;28;20032;-83
2023/04/01 18:01:04;;;;;;;67.97;32.10;;;;;;;;;;10472815;28;20068;-83
2023/04/01 18:06:17;;;;;;;49.87;23.33;;;;;;;;;;10490289;28;20259;-84
2023/04/01 18:11:38;;;;;;;59.03;26.92;;;;;;;;;;10489169;28;20403;-85
2023/04/01 18:16:44;;;;;;;33.37;13.27;;;;;;;;;;10472018;28;20040;-83
2023/04/01 18:21:45;;;;;;;;;;;;;;;;;;10489769;28;20016;-83
2023/04/01 18:26:51;;;;;;;45.73;19.77;;;;;;;;;;10489835;28;19908;-82
2023/04/01 18:31:52;;;;;;;;;;;;;;;;;;10490291;28;20446;-84
2023/04/01 18:36:59;;;;;;;41.50;17.23;;;;;;;;;;10489200;28;19908;-83
2023/04/01 18:42:09;;;;;;;32.73;15.63;;;;;;;;;;10489000;28;20060;-83
2023/04/01 18:47:24;;;;;;;30.30;12.47;;;;;;;;;;10488334;28;20029;-84
2023/04/01 18:52:39;;;;;;;37.07;17.30;;;;;;;;;;10477501;28;20031;-83
2023/04/01 18:57:53;;;;;;;21.97;10.63;;;;;;;;;;10488739;28;20115;-83
2023/04/01 19:03:06;;;;;;;18.87;8.17;;;;;;;;;;10470393;28;20854;-82
2023/04/01 19:08:28;;;;;;;18.63;7.67;;;;;;;;;;10487520;28;20479;-83
2023/04/01 19:13:46;;;;;;;18.43;7.97;;;;;;;;;;10476855;28;20189;-85
2023/04/01 19:19:00;;;;;;;20.63;7.73;;;;;;;;;;10469728;28;20035;-83
2023/04/01 19:24:01;;;;;;;20.03;9.97;;;;;;;;;;10487082;28;20037;-83
2023/04/01 19:29:25;;;;;;;37.60;18.23;;;;;;;;;;10486562;28;20480;-84
2023/04/01 19:34:38;;;;;;;215.67;70.83;;;;;;;;;;10487266;28;20082;-82
2023/04/01 19:39:48;;;;;;;82.43;28.10;;;;;;;;;;10485736;28;20064;-83
2023/04/01 19:44:49;;;;;;;74.57;27.80;;;;;;;;;;10468382;28;20416;-83
2023/04/01 19:50:00;;;;;;;75.90;32.73;;;;;;;;;;10486794;28;20024;-84
2023/04/01 19:55:01;;;;;;;112.43;41.10;;;;;;;;;;10476224;28;20079;-81
2023/04/01 20:00:08;;;;;;;83.97;36.83;;;;;;;;;;10464941;28;20634;-81
2023/04/01 20:05:25;;;;;;;99.77;38.83;;;;;;;;;;10485131;28;20543;-82
2023/04/01 20:10:40;;;;;;;108.80;43.13;;;;;;;;;;10467719;28;20021;-85
2023/04/01 20:15:58;;;;;;;87.83;31.00;;;;;;;;;;10486005;28;20021;-83
2023/04/01 20:21:08;;;;;;;115.87;58.27;;;;;;;;;;10458578;28;20032;-84
2023/04/01 20:26:10;;;;;;;201.17;82.60;;;;;;;;;;10485133;28;20032;-85
2023/04/01 20:31:17;;;;;;;137.60;53.17;;;;;;;;;;10486452;28;20515;-82
2023/04/01 20:36:24;;;;;;;193.20;70.27;;;;;;;;;;10471377;28;20566;-82
2023/04/01 20:41:40;;;;;;;120.47;48.67;;;;;;;;;;10485161;28;20640;-82
2023/04/01 20:46:42;;;;;;;;;;;;;;;;;;10466934;28;20028;-82
2023/04/01 20:52:12;;;;;;;106.17;41.53;;;;;;;;;;10484498;28;20382;-84
2023/04/01 20:57:30;;;;;;;115.77;47.33;;;;;;;;;;10458415;28;20644;-83
2023/04/01 21:02:43;;;;;;;94.70;37.43;;;;;;;;;;10484149;28;20032;-83
2023/04/01 21:08:07;;;;;;;138.17;47.53;;;;;;;;;;10485378;28;20032;-83
2023/04/01 21:13:17;;;;;;;132.60;47.60;;;;;;;;;;10464841;28;20579;-83
2023/04/01 21:18:21;;;;;;;72.73;25.60;;;;;;;;;;10466002;28;20036;-82
2023/04/01 21:23:38;;;;;;;52.50;20.40;;;;;;;;;;10483578;28;20055;-83
2023/04/01 21:28:47;;;;;;;57.50;22.17;;;;;;;;;;10470705;28;20037;-82
2023/04/01 21:33:57;;;;;;;73.43;24.27;;;;;;;;;;10466077;28;20666;-82
2023/04/01 21:39:06;;;;;;;65.20;23.97;;;;;;;;;;10483785;28;20052;-82
2023/04/01 21:44:28;;;;;;;74.93;26.10;;;;;;;;;;10483519;28;20403;-82
2023/04/01 21:49:48;;;;;;;83.60;25.67;;;;;;;;;;10471945;28;20035;-81
2023/04/01 21:54:55;;;;;;;86.13;28.93;;;;;;;;;;10490549;28;20036;-83
2023/04/01 22:00:15;;;;;;;90.63;28.43;;;;;;;;;;10491291;28;20032;-82
2023/04/01 22:05:29;;;;;;;106.33;34.97;;;;;;;;;;10490859;28;20039;-82
2023/04/01 22:10:33;;;;;;;251.73;92.53;;;;;;;;;;10490179;28;20055;-83
2023/04/01 22:15:55;;;;;;;139.07;44.37;;;;;;;;;;10490308;28;20169;-85
2023/04/01 22:21:05;;;;;;;156.70;39.47;;;;;;;;;;10490133;28;20027;-82
2023/04/01 22:26:24;;;;;;;107.80;30.90;;;;;;;;;;10489353;28;20033;-82
2023/04/01 22:31:33;;;;;;;95.10;33.33;;;;;;;;;;10478335;28;20013;-81
2023/04/01 22:36:53;;;;;;;130.40;40.17;;;;;;;;;;10489368;28;20586;-85
2023/04/01 22:42:07;;;;;;;187.63;47.67;;;;;;;;;;10488813;28;20043;-84
2023/04/01 22:47:27;;;;;;;163.47;44.50;;;;;;;;;;10488833;28;20082;-83
2023/04/01 22:52:33;;;;;;;160.87;44.80;;;;;;;;;;10464366;28;20115;-83
2023/04/01 22:57:43;;;;;;;151.43;45.40;;;;;;;;;;10463541;28;20125;-83
2023/04/01 23:02:50;;;;;;;153.77;44.97;;;;;;;;;;10449802;28;20040;-82
2023/04/01 23:08:01;;;;;;;244.70;60.40;;;;;;;;;;10454100;28;20388;-83
2023/04/01 23:13:04;;;;;;;130.73;42.60;;;;;;;;;;10480195;28;20043;-82
2023/04/01 23:18:26;;;;;;;198.87;48.43;;;;;;;;;;10469187;28;20033;-82
2023/04/01 23:23:30;;;;;;;150.83;46.80;;;;;;;;;;10452737;28;20044;-82
2023/04/01 23:28:31;;;;;;;141.00;48.47;;;;;;;;;;10518746;22;20062;-83
2023/04/01 23:33:32;;;;;;;206.87;55.90;;;;;;;;;;10559975;28;20378;-84
2023/04/01 23:38:35;;;;;;;194.33;60.20;;;;;;;;;;10558729;28;20032;-82
2023/04/01 23:43:38;;;;;;;191.07;52.57;;;;;;;;;;10558948;28;20045;-82
2023/04/01 23:48:43;;;;;;;120.13;43.03;;;;;;;;;;10565902;28;20031;-83
2023/04/01 23:53:46;;;;;;;110.13;34.22;;;;;;;;;;10565162;28;20495;-83
2023/04/01 23:58:55;;;;;;;103.17;31.07;;;;;;;;;;10538966;28;20564;-82
